createdAt,value
2018-03-27T00:02:22.496Z,4.97
2018-03-27T00:04:50.481Z,4.98
2018-03-27T00:07:19.293Z,5.06
2018-03-27T00:09:47.355Z,5.07
2018-03-27T00:12:15.929Z,5.09
2018-03-27T00:14:44.002Z,5.11
2018-03-27T00:17:12.079Z,5.16
2018-03-27T00:19:40.468Z,5.13
2018-03-27T00:22:09.089Z,5.09
2018-03-27T00:24:42.007Z,5.10
2018-03-27T00:27:09.589Z,5.20
2018-03-27T00:29:49.478Z,5.17
2018-03-27T00:32:29.390Z,5.17
2018-03-27T00:35:09.472Z,5.15
2018-03-27T00:37:49.216Z,5.15
2018-03-27T00:40:29.040Z,5.09
2018-03-27T00:42:57.088Z,5.11
2018-03-27T00:45:25.747Z,5.12
2018-03-27T00:47:53.791Z,5.08
2018-03-27T00:50:21.804Z,5.08
2018-03-27T00:52:49.836Z,5.02
2018-03-27T00:55:17.842Z,4.96
2018-03-27T00:57:45.836Z,5.05
2018-03-27T01:00:13.865Z,4.96
2018-03-27T01:02:41.910Z,4.77
2018-03-27T01:05:09.920Z,4.77
2018-03-27T01:07:37.980Z,4.80
2018-03-27T01:10:05.964Z,4.74
2018-03-27T01:12:33.993Z,4.59
2018-03-27T01:15:02.822Z,4.61
2018-03-27T01:17:30.863Z,4.73
2018-03-27T01:19:58.881Z,4.86
2018-03-27T01:22:26.989Z,4.77
2018-03-27T01:24:55.040Z,4.89
2018-03-27T01:27:23.033Z,4.79
2018-03-27T01:29:51.042Z,4.80
2018-03-27T01:32:19.071Z,4.80
2018-03-27T01:34:47.074Z,4.88
2018-03-27T01:37:15.138Z,4.90
2018-03-27T01:39:43.157Z,4.93
2018-03-27T01:42:11.234Z,4.90
2018-03-27T01:44:39.226Z,4.90
2018-03-27T01:47:07.456Z,4.84
2018-03-27T01:49:35.442Z,4.88
2018-03-27T01:52:03.494Z,4.90
2018-03-27T01:54:31.485Z,4.90
2018-03-27T01:56:59.498Z,4.96
2018-03-27T01:59:27.530Z,4.81
2018-03-27T02:01:55.519Z,4.79
2018-03-27T02:04:23.566Z,4.74
2018-03-27T02:06:51.588Z,4.79
2018-03-27T02:09:19.578Z,4.79
2018-03-27T02:11:53.268Z,4.73
2018-03-27T02:14:27.029Z,4.71
2018-03-27T02:17:00.666Z,4.62
2018-03-27T02:19:34.391Z,4.60
2018-03-27T02:22:01.911Z,4.63
2018-03-27T02:24:32.153Z,4.65
2018-03-27T02:27:00.170Z,4.69
2018-03-27T02:29:28.654Z,4.63
2018-03-27T02:31:56.775Z,4.56
2018-03-27T02:34:25.591Z,4.63
2018-03-27T02:36:53.577Z,4.73
2018-03-27T02:39:21.701Z,4.68
2018-03-27T02:41:49.738Z,4.60
2018-03-27T02:44:17.757Z,4.64
2018-03-27T02:46:46.474Z,4.67
2018-03-27T02:49:14.495Z,4.63
2018-03-27T02:51:42.515Z,4.61
2018-03-27T02:54:10.520Z,4.74
2018-03-27T02:56:39.461Z,4.62
2018-03-27T02:59:07.406Z,4.67
2018-03-27T03:01:35.354Z,4.72
2018-03-27T03:04:03.340Z,4.72
2018-03-27T03:06:31.305Z,4.71
2018-03-27T03:08:59.427Z,4.65
2018-03-27T03:11:27.357Z,4.61
2018-03-27T03:13:55.297Z,4.59
2018-03-27T03:16:23.417Z,4.51
2018-03-27T03:18:51.415Z,4.41
2018-03-27T03:21:19.354Z,4.36
2018-03-27T03:23:47.297Z,4.29
2018-03-27T03:26:15.244Z,4.35
2018-03-27T03:28:43.194Z,4.36
2018-03-27T03:31:11.283Z,4.19
2018-03-27T03:33:39.584Z,4.17
2018-03-27T03:36:07.545Z,4.21
2018-03-27T03:38:35.527Z,4.10
2018-03-27T03:41:03.483Z,4.15
2018-03-27T03:43:31.384Z,4.19
2018-03-27T03:45:59.355Z,4.67
2018-03-27T03:48:27.287Z,5.87
2018-03-27T03:50:55.326Z,4.71
2018-03-27T03:53:23.249Z,4.37
2018-03-27T03:55:51.211Z,4.09
2018-03-27T03:58:20.124Z,4.09
2018-03-27T04:00:48.097Z,4.16
2018-03-27T04:03:16.041Z,4.22
2018-03-27T04:05:43.991Z,4.31
2018-03-27T04:08:11.941Z,4.12
2018-03-27T04:10:39.911Z,4.12
2018-03-27T04:13:07.853Z,3.99
2018-03-27T04:15:40.091Z,4.06
2018-03-27T04:18:08.075Z,4.05
2018-03-27T04:20:36.374Z,4.06
2018-03-27T04:23:04.293Z,4.06
2018-03-27T04:25:32.219Z,3.91
2018-03-27T04:28:01.041Z,3.87
2018-03-27T04:30:29.051Z,3.82
2018-03-27T04:32:56.996Z,3.82
2018-03-27T04:35:24.946Z,3.75
2018-03-27T04:37:52.869Z,3.79
2018-03-27T04:40:20.785Z,3.78
2018-03-27T04:42:49.610Z,3.68
2018-03-27T04:45:17.689Z,3.60
2018-03-27T04:47:45.677Z,3.60
2018-03-27T04:50:15.930Z,3.63
2018-03-27T04:52:44.061Z,3.57
2018-03-27T04:55:12.088Z,3.65
2018-03-27T04:57:40.088Z,3.60
2018-03-27T05:00:08.043Z,3.52
2018-03-27T05:02:36.737Z,3.54
2018-03-27T05:05:04.672Z,3.52
2018-03-27T05:07:32.617Z,3.49
2018-03-27T05:10:00.556Z,3.56
2018-03-27T05:12:28.534Z,3.45
2018-03-27T05:14:56.558Z,3.56
2018-03-27T05:17:24.528Z,3.68
2018-03-27T05:19:52.485Z,3.65
2018-03-27T05:22:20.439Z,3.60
2018-03-27T05:24:48.408Z,3.52
2018-03-27T05:27:17.142Z,3.47
2018-03-27T05:29:45.109Z,3.39
2018-03-27T05:32:13.123Z,3.46
2018-03-27T05:34:41.121Z,3.52
2018-03-27T05:37:09.769Z,3.59
2018-03-27T05:39:37.718Z,3.52
2018-03-27T05:42:05.759Z,3.45
2018-03-27T05:44:33.707Z,3.55
2018-03-27T05:47:01.639Z,3.48
2018-03-27T05:49:29.586Z,3.53
2018-03-27T05:51:57.533Z,3.54
2018-03-27T05:54:25.513Z,3.53
2018-03-27T05:56:53.485Z,3.67
2018-03-27T05:59:22.449Z,3.61
2018-03-27T06:01:50.417Z,3.52
2018-03-27T06:04:18.343Z,3.61
2018-03-27T06:06:46.293Z,3.61
2018-03-27T06:09:14.693Z,3.63
2018-03-27T06:11:42.665Z,3.69
2018-03-27T06:14:10.626Z,3.71
2018-03-27T06:16:38.598Z,3.69
2018-03-27T06:19:06.551Z,3.74
2018-03-27T06:21:34.786Z,4.24
2018-03-27T06:24:02.862Z,4.31
2018-03-27T06:26:30.805Z,4.38
2018-03-27T06:28:58.752Z,4.54
2018-03-27T06:31:27.442Z,4.48
2018-03-27T06:33:55.361Z,4.68
2018-03-27T06:36:23.325Z,4.88
2018-03-27T06:38:51.302Z,4.87
2018-03-27T06:41:19.742Z,4.58
2018-03-27T06:43:47.732Z,4.32
2018-03-27T06:46:16.007Z,4.20
2018-03-27T06:48:44.002Z,4.32
2018-03-27T06:51:11.943Z,4.20
2018-03-27T06:53:40.680Z,4.34
2018-03-27T06:56:08.637Z,4.50
2018-03-27T06:58:36.589Z,4.53
2018-03-27T07:01:04.909Z,4.44
2018-03-27T07:03:33.044Z,4.50
2018-03-27T07:06:01.161Z,4.48
2018-03-27T07:08:29.751Z,4.48
2018-03-27T07:10:57.793Z,4.29
2018-03-27T07:13:25.865Z,4.18
2018-03-27T07:15:53.826Z,4.36
2018-03-27T07:18:22.768Z,4.27
2018-03-27T07:20:50.829Z,4.27
2018-03-27T07:23:18.869Z,4.39
2018-03-27T07:25:47.132Z,4.41
2018-03-27T07:28:15.092Z,4.48
2018-03-27T07:30:43.127Z,4.50
2018-03-27T07:33:11.096Z,4.17
2018-03-27T07:35:41.106Z,4.13
2018-03-27T07:38:09.788Z,4.28
2018-03-27T07:40:37.745Z,4.36
2018-03-27T07:43:06.303Z,4.19
2018-03-27T07:45:35.268Z,4.44
2018-03-27T07:48:03.262Z,4.28
2018-03-27T07:50:31.219Z,4.47
2018-03-27T07:52:59.129Z,4.64
2018-03-27T07:55:27.119Z,4.67
2018-03-27T07:57:55.729Z,4.77
2018-03-27T08:00:23.782Z,4.90
2018-03-27T08:02:51.742Z,4.84
2018-03-27T08:05:19.883Z,4.77
2018-03-27T08:07:47.807Z,4.68
2018-03-27T08:10:15.874Z,5.03
2018-03-27T08:12:46.058Z,5.10
2018-03-27T08:15:13.981Z,4.74
2018-03-27T08:17:41.952Z,4.38
2018-03-27T08:20:09.892Z,4.72
2018-03-27T08:22:37.834Z,4.57
2018-03-27T08:25:05.749Z,4.68
2018-03-27T08:27:33.792Z,4.77
2018-03-27T08:30:01.757Z,4.78
2018-03-27T08:32:30.588Z,4.78
2018-03-27T08:34:58.571Z,5.12
2018-03-27T08:37:26.743Z,4.73
2018-03-27T08:39:55.625Z,4.72
2018-03-27T08:42:23.584Z,4.74
2018-03-27T08:44:51.548Z,4.64
2018-03-27T08:47:19.481Z,4.64
2018-03-27T08:49:47.694Z,4.76
2018-03-27T08:52:15.890Z,4.92
2018-03-27T08:54:43.876Z,5.09
2018-03-27T08:57:11.806Z,4.93
2018-03-27T08:59:39.755Z,4.92
2018-03-27T09:02:07.709Z,5.00
2018-03-27T09:04:35.654Z,4.94
2018-03-27T09:07:03.662Z,5.19
2018-03-27T09:09:31.636Z,4.89
2018-03-27T09:11:59.633Z,4.90
2018-03-27T09:14:27.601Z,4.96
2018-03-27T09:16:55.705Z,4.68
2018-03-27T09:19:23.943Z,4.76
2018-03-27T09:21:51.886Z,4.92
2018-03-27T09:24:20.615Z,5.10
2018-03-27T09:26:48.566Z,5.32
2018-03-27T09:29:16.524Z,5.49
2018-03-27T09:31:45.980Z,5.62
2018-03-27T09:34:13.889Z,5.68
2018-03-27T09:36:41.832Z,5.75
2018-03-27T09:39:09.798Z,6.06
2018-03-27T09:41:37.772Z,6.27
2018-03-27T09:44:05.739Z,6.19
2018-03-27T09:46:34.998Z,6.39
2018-03-27T09:49:02.917Z,6.27
2018-03-27T09:51:30.880Z,6.24
2018-03-27T09:53:58.818Z,6.50
2018-03-27T09:56:26.847Z,7.70
2018-03-27T09:58:54.778Z,7.87
2018-03-27T10:01:27.668Z,7.93
2018-03-27T10:03:55.613Z,8.21
2018-03-27T10:06:23.545Z,8.21
2018-03-27T10:08:51.665Z,8.41
2018-03-27T10:11:19.546Z,9.09
2018-03-27T10:13:47.557Z,8.96
2018-03-27T10:16:15.926Z,9.05
2018-03-27T10:18:43.858Z,10.31
2018-03-27T10:21:11.802Z,10.64
2018-03-27T10:23:39.738Z,11.00
2018-03-27T10:26:07.680Z,10.60
2018-03-27T10:28:35.604Z,11.64
2018-03-27T10:31:03.579Z,12.61
2018-03-27T10:33:31.509Z,12.69
2018-03-27T10:35:59.504Z,12.44
2018-03-27T10:38:27.472Z,11.55
2018-03-27T10:40:55.411Z,12.32
2018-03-27T10:43:23.723Z,13.10
2018-03-27T10:45:51.666Z,13.19
2018-03-27T10:48:19.630Z,13.67
2018-03-27T10:50:47.614Z,13.30
2018-03-27T10:53:15.571Z,12.62
2018-03-27T10:55:43.580Z,12.89
2018-03-27T10:58:11.515Z,13.65
2018-03-27T11:00:39.483Z,14.52
2018-03-27T11:03:07.431Z,14.04
2018-03-27T11:05:35.350Z,13.26
2018-03-27T11:08:03.356Z,12.65
2018-03-27T11:10:31.328Z,14.17
2018-03-27T11:12:59.293Z,14.65
2018-03-27T11:15:27.304Z,13.73
2018-03-27T11:17:55.267Z,14.85
2018-03-27T11:20:23.177Z,15.01
2018-03-27T11:22:51.128Z,14.42
2018-03-27T11:25:19.069Z,14.00
2018-03-27T11:27:47.006Z,14.57
2018-03-27T11:30:15.455Z,15.03
2018-03-27T11:32:43.405Z,14.87
2018-03-27T11:35:11.358Z,14.99
2018-03-27T11:37:39.301Z,15.03
2018-03-27T11:40:07.223Z,14.03
2018-03-27T11:42:35.160Z,13.74
2018-03-27T11:45:03.084Z,13.64
2018-03-27T11:47:31.002Z,13.92
2018-03-27T11:49:58.932Z,13.92
2018-03-27T11:52:26.860Z,14.21
2018-03-27T11:54:55.792Z,13.88
2018-03-27T11:57:23.705Z,13.83
2018-03-27T11:59:51.614Z,14.13
2018-03-27T12:02:19.543Z,14.21
2018-03-27T12:04:47.463Z,14.39
2018-03-27T12:07:15.419Z,13.95
2018-03-27T12:09:43.348Z,14.27
2018-03-27T12:12:11.292Z,14.62
2018-03-27T12:14:39.215Z,14.68
2018-03-27T12:17:07.106Z,14.71
2018-03-27T12:19:35.025Z,15.12
2018-03-27T12:22:03.023Z,15.32
2018-03-27T12:24:30.985Z,15.25
2018-03-27T12:26:58.918Z,14.55
2018-03-27T12:29:26.820Z,14.77
2018-03-27T12:31:54.773Z,14.32
2018-03-27T12:34:22.690Z,13.93
2018-03-27T12:36:50.623Z,13.32
2018-03-27T12:39:18.970Z,13.11
2018-03-27T12:41:46.909Z,12.49
2018-03-27T12:44:14.827Z,11.94
2018-03-27T12:46:42.745Z,12.06
2018-03-27T12:49:10.655Z,11.76
2018-03-27T12:51:38.573Z,12.28
2018-03-27T12:54:06.489Z,12.74
2018-03-27T12:56:34.410Z,12.63
2018-03-27T12:59:02.343Z,12.50
2018-03-27T13:01:30.217Z,12.74
2018-03-27T13:03:58.158Z,12.97
2018-03-27T13:06:26.096Z,13.18
2018-03-27T13:08:54.073Z,12.78
2018-03-27T13:11:21.958Z,12.88
2018-03-27T13:13:50.208Z,12.01
2018-03-27T13:16:18.136Z,11.40
2018-03-27T13:18:46.073Z,11.58
2018-03-27T13:21:14.013Z,11.42
2018-03-27T13:23:41.942Z,10.34
2018-03-27T13:26:10.088Z,11.01
2018-03-27T13:28:38.005Z,11.22
2018-03-27T13:31:05.928Z,11.00
2018-03-27T13:33:33.874Z,10.96
2018-03-27T13:36:01.784Z,10.88
2018-03-27T13:38:29.695Z,10.80
2018-03-27T13:40:57.626Z,11.25
2018-03-27T13:43:25.533Z,11.61
2018-03-27T13:45:53.522Z,11.85
2018-03-27T13:48:21.433Z,11.88
2018-03-27T13:50:49.352Z,11.77
2018-03-27T13:53:17.303Z,11.91
2018-03-27T13:55:45.212Z,11.72
2018-03-27T13:58:13.144Z,11.61
2018-03-27T14:00:41.051Z,11.43
2018-03-27T14:03:08.956Z,11.37
2018-03-27T14:05:36.901Z,11.31
2018-03-27T14:08:04.813Z,10.83
2018-03-27T14:10:32.748Z,10.92
2018-03-27T14:13:00.698Z,11.04
2018-03-27T14:15:28.634Z,10.85
2018-03-27T14:17:56.560Z,10.56
2018-03-27T14:20:24.568Z,10.37
2018-03-27T14:22:56.261Z,10.30
2018-03-27T14:25:24.175Z,10.16
2018-03-27T14:27:52.105Z,9.86
2018-03-27T14:30:20.074Z,9.71
2018-03-27T14:32:47.987Z,9.48
2018-03-27T14:35:15.914Z,9.74
2018-03-27T14:37:43.866Z,9.50
2018-03-27T14:40:11.824Z,9.15
2018-03-27T14:42:39.821Z,9.36
2018-03-27T14:45:07.752Z,9.38
2018-03-27T14:47:35.798Z,9.26
2018-03-27T14:50:03.701Z,9.24
2018-03-27T14:52:31.646Z,9.44
2018-03-27T14:54:59.566Z,9.23
2018-03-27T14:57:27.538Z,9.48
2018-03-27T14:59:55.476Z,9.24
2018-03-27T15:02:23.424Z,9.42
2018-03-27T15:04:51.379Z,9.62
2018-03-27T15:07:19.308Z,9.74
2018-03-27T15:09:47.236Z,9.65
2018-03-27T15:12:15.161Z,9.76
2018-03-27T15:14:43.208Z,9.69
2018-03-27T15:17:11.130Z,9.46
2018-03-27T15:19:39.070Z,9.54
2018-03-27T15:22:06.994Z,9.51
2018-03-27T15:24:34.936Z,9.26
2018-03-27T15:27:02.933Z,9.32
2018-03-27T15:29:30.867Z,9.24
2018-03-27T15:31:58.796Z,9.26
2018-03-27T15:34:27.464Z,9.19
2018-03-27T15:36:55.383Z,9.21
2018-03-27T15:39:23.345Z,9.16
2018-03-27T15:41:52.798Z,9.11
2018-03-27T15:44:20.889Z,8.94
2018-03-27T15:46:48.845Z,9.02
2018-03-27T15:49:16.938Z,8.86
2018-03-27T15:51:44.850Z,8.85
2018-03-27T15:54:12.985Z,8.55
2018-03-27T15:56:41.090Z,8.48
2018-03-27T15:59:10.137Z,8.90
2018-03-27T16:01:38.231Z,9.23
2018-03-27T16:04:06.193Z,9.26
2018-03-27T16:06:34.158Z,9.69
2018-03-27T16:09:02.082Z,9.32
2018-03-27T16:11:31.123Z,9.29
2018-03-27T16:14:00.800Z,9.36
2018-03-27T16:16:28.738Z,9.45
2018-03-27T16:18:56.644Z,9.26
2018-03-27T16:21:24.560Z,9.36
2018-03-27T16:23:52.518Z,9.23
2018-03-27T16:26:20.417Z,8.95
2018-03-27T16:28:48.390Z,8.86
2018-03-27T16:31:16.301Z,8.63
2018-03-27T16:33:44.304Z,8.64
2018-03-27T16:36:12.228Z,8.53
2018-03-27T16:38:40.158Z,8.51
2018-03-27T16:41:08.124Z,8.33
2018-03-27T16:43:36.081Z,8.35
2018-03-27T16:46:04.009Z,8.31
2018-03-27T16:48:31.951Z,8.41
2018-03-27T16:50:59.926Z,8.49
2018-03-27T16:53:27.861Z,8.38
2018-03-27T16:55:55.808Z,8.30
2018-03-27T16:58:23.753Z,8.24
2018-03-27T17:00:51.659Z,8.27
2018-03-27T17:03:19.601Z,8.19
2018-03-27T17:05:47.514Z,8.07
2018-03-27T17:08:15.437Z,8.09
2018-03-27T17:10:43.358Z,8.19
2018-03-27T17:13:11.318Z,8.30
2018-03-27T17:15:39.272Z,8.24
2018-03-27T17:18:07.253Z,8.11
2018-03-27T17:20:35.169Z,8.07
2018-03-27T17:23:03.095Z,8.07
2018-03-27T17:25:31.006Z,8.14
2018-03-27T17:27:58.942Z,8.14
2018-03-27T17:30:26.847Z,8.04
2018-03-27T17:32:54.843Z,7.97
2018-03-27T17:35:22.764Z,7.79
2018-03-27T17:37:50.701Z,8.00
2018-03-27T17:40:18.610Z,7.83
2018-03-27T17:42:46.569Z,7.88
2018-03-27T17:45:14.485Z,7.82
2018-03-27T17:47:42.413Z,7.75
2018-03-27T17:50:10.342Z,7.69
2018-03-27T17:52:38.283Z,7.54
2018-03-27T17:55:06.202Z,7.46
2018-03-27T17:57:34.152Z,7.52
2018-03-27T18:00:02.057Z,7.45
2018-03-27T18:02:29.988Z,7.46
2018-03-27T18:04:57.931Z,7.30
2018-03-27T18:07:25.867Z,7.27
2018-03-27T18:09:53.760Z,7.43
2018-03-27T18:12:21.684Z,7.13
2018-03-27T18:14:49.642Z,7.13
2018-03-27T18:17:17.546Z,7.12
2018-03-27T18:19:45.458Z,6.98
2018-03-27T18:22:13.377Z,6.94
2018-03-27T18:24:41.314Z,6.93
2018-03-27T18:27:09.269Z,6.93
2018-03-27T18:29:37.200Z,6.94
2018-03-27T18:32:05.114Z,6.98
2018-03-27T18:34:33.240Z,7.05
2018-03-27T18:37:01.190Z,6.80
2018-03-27T18:39:29.123Z,6.91
2018-03-27T18:41:57.809Z,6.88
2018-03-27T18:44:25.766Z,6.84
2018-03-27T18:46:53.700Z,6.74
2018-03-27T18:49:21.614Z,6.73
2018-03-27T18:51:49.537Z,6.73
2018-03-27T18:54:17.448Z,6.48
2018-03-27T18:56:45.385Z,6.63
2018-03-27T18:59:13.304Z,6.67
2018-03-27T19:01:41.233Z,6.63
2018-03-27T19:04:09.149Z,6.56
2018-03-27T19:06:37.115Z,6.59
2018-03-27T19:09:05.058Z,6.50
2018-03-27T19:11:32.988Z,6.53
2018-03-27T19:14:01.231Z,6.44
2018-03-27T19:16:29.157Z,6.37
2018-03-27T19:18:57.061Z,6.41
2018-03-27T19:21:24.978Z,6.37
2018-03-27T19:23:52.885Z,6.30
2018-03-27T19:26:20.821Z,6.29
2018-03-27T19:28:48.737Z,6.23
2018-03-27T19:31:16.851Z,6.24
2018-03-27T19:33:44.782Z,6.17
2018-03-27T19:36:12.797Z,6.12
2018-03-27T19:38:40.692Z,6.25
2018-03-27T19:41:08.598Z,6.15
2018-03-27T19:43:37.246Z,6.19
2018-03-27T19:46:05.354Z,6.11
2018-03-27T19:48:33.283Z,6.07
2018-03-27T19:51:01.218Z,6.11
2018-03-27T19:53:29.141Z,6.15
2018-03-27T19:55:57.064Z,6.23
2018-03-27T19:58:25.021Z,6.09
2018-03-27T20:00:53.001Z,6.06
2018-03-27T20:03:21.822Z,6.17
2018-03-27T20:05:49.757Z,5.84
2018-03-27T20:08:17.675Z,5.80
2018-03-27T20:10:45.665Z,5.74
2018-03-27T20:13:13.618Z,5.82
2018-03-27T20:15:42.120Z,5.80
2018-03-27T20:18:09.471Z,5.89
2018-03-27T20:20:37.775Z,5.95
2018-03-27T20:23:05.699Z,5.80
2018-03-27T20:25:33.620Z,5.71
2018-03-27T20:28:01.570Z,5.77
2018-03-27T20:30:29.484Z,5.90
2018-03-27T20:32:57.547Z,5.92
2018-03-27T20:35:25.469Z,5.79
2018-03-27T20:37:53.412Z,5.81
2018-03-27T20:40:21.343Z,5.90
2018-03-27T20:42:49.350Z,5.98
2018-03-27T20:45:17.304Z,5.82
2018-03-27T20:47:45.228Z,5.87
2018-03-27T20:50:13.179Z,5.66
2018-03-27T20:52:41.101Z,5.66
2018-03-27T20:55:09.044Z,5.81
2018-03-27T20:57:37.062Z,5.77
2018-03-27T21:00:04.972Z,5.83
2018-03-27T21:02:32.923Z,5.80
2018-03-27T21:05:00.872Z,5.79
2018-03-27T21:07:29.405Z,5.82
2018-03-27T21:09:57.400Z,5.70
2018-03-27T21:12:25.327Z,5.72
2018-03-27T21:14:53.285Z,5.55
2018-03-27T21:17:21.309Z,5.56
2018-03-27T21:19:49.325Z,5.66
2018-03-27T21:22:17.252Z,5.64
2018-03-27T21:24:45.195Z,5.67
2018-03-27T21:27:13.109Z,5.63
2018-03-27T21:29:41.028Z,5.47
2018-03-27T21:32:08.988Z,5.50
2018-03-27T21:34:36.895Z,5.63
2018-03-27T21:37:04.842Z,5.57
2018-03-27T21:39:32.901Z,5.61
2018-03-27T21:42:00.865Z,5.53
2018-03-27T21:44:28.873Z,5.62
2018-03-27T21:46:56.784Z,5.67
2018-03-27T21:49:24.736Z,5.67
2018-03-27T21:51:52.845Z,5.62
2018-03-27T21:54:20.856Z,5.54
2018-03-27T21:56:48.827Z,5.51
2018-03-27T21:59:21.686Z,5.50
2018-03-27T22:01:49.894Z,5.54
2018-03-27T22:04:17.913Z,5.48
2018-03-27T22:06:45.870Z,5.35
2018-03-27T22:09:13.802Z,5.35
2018-03-27T22:11:42.450Z,5.42
2018-03-27T22:14:10.468Z,5.38
2018-03-27T22:16:38.409Z,5.40
2018-03-27T22:19:06.410Z,5.37
2018-03-27T22:21:34.337Z,5.38
2018-03-27T22:24:02.254Z,5.43
2018-03-27T22:26:30.295Z,5.27
2018-03-27T22:28:58.265Z,5.24
2018-03-27T22:31:26.311Z,5.28
2018-03-27T22:33:54.259Z,5.23
2018-03-27T22:36:22.319Z,5.20
2018-03-27T22:38:50.408Z,5.24
2018-03-27T22:41:18.345Z,5.33
2018-03-27T22:43:46.424Z,5.33
2018-03-27T22:46:14.461Z,5.27
2018-03-27T22:48:42.376Z,5.33
2018-03-27T22:51:10.332Z,5.33
2018-03-27T22:53:38.285Z,5.41
2018-03-27T22:56:06.245Z,5.38
2018-03-27T22:58:34.187Z,5.38
2018-03-27T23:01:02.125Z,5.41
2018-03-27T23:03:30.049Z,5.39
2018-03-27T23:05:58.005Z,5.47
2018-03-27T23:08:26.054Z,5.38
2018-03-27T23:10:54.061Z,5.31
2018-03-27T23:13:22.020Z,5.32
2018-03-27T23:15:50.742Z,5.39
2018-03-27T23:18:18.667Z,5.34
2018-03-27T23:20:46.579Z,5.33
2018-03-27T23:23:14.509Z,5.30
2018-03-27T23:25:42.444Z,5.24
2018-03-27T23:28:11.465Z,5.38
2018-03-27T23:30:39.418Z,5.23
2018-03-27T23:33:07.316Z,5.23
2018-03-27T23:35:35.239Z,5.20
2018-03-27T23:38:03.164Z,5.13
2018-03-27T23:40:31.123Z,5.27
2018-03-27T23:42:59.060Z,5.21
2018-03-27T23:45:27.038Z,5.25
2018-03-27T23:47:54.978Z,5.25
2018-03-27T23:50:22.950Z,5.21
2018-03-27T23:52:50.917Z,5.22
2018-03-27T23:55:19.111Z,5.19
2018-03-27T23:57:47.052Z,5.13
